Latest Coastal Weather Observations for Gannett Cay

IDQ60701

Issued at 5:51 am EST Sunday 26 April 2015 (issued every 10 minutes, with the page automatically refreshed every 10 minutes)

About coastal observations | Map of coastal stations | Coastal observations for QLD | Marine services | Other Formats
Station Details ID: 200831 Name: GANNET CAY Lat: -21.98 Lon: 152.47 Height: 2.3 m
Data from the previous 72 hours. | See also: Recent months for locations in Queensland
Date/Time
EST
Temp

°C
Wind Pressure Rain
since 9am
mm
Weather Cloud Vis
km
Sea
Height
m
Swell
Dir
 
Speed
knots
Gust
knots
hPa Trend Height
m
Period
s
Dir
26/05:30am 25.3 W 13 15 1010.9 - - - - - - - - -
26/05:00am 25.2 W 13 15 1010.7 - - - - - - - - -
26/04:30am 25.1 W 13 16 1010.6 - - - - - - - - -
26/04:00am 24.9 WNW 13 16 1010.6 - - - - - - - - -
26/03:30am 24.9 WNW 11 13 1010.6 - - - - - - - - -
26/03:00am 24.9 WNW 9 10 1010.5 - - - - - - - - -
26/02:30am 24.8 NW 8 9 1010.5 - - - - - - - - -
26/02:00am 24.8 NNW 7 8 1010.3 - - - - - - - - -
26/01:30am 24.8 N 6 8 1010.5 - - - - - - - - -
26/01:00am 24.8 N 7 9 1010.5 - - - - - - - - -
26/12:30am 24.9 N 6 8 1010.9 - - - - - - - - -
26/12:00am 24.9 N 5 6 1011.3 - - - - - - - - -
 
Date/Time
EST
Temp

°C
Wind Pressure Rain
since 9am
mm
Weather Cloud Vis
km
Sea
Height
m
Swell
Dir
 
Speed
knots
Gust
knots
hPa Trend Height
m
Period
s
Dir
25/11:30pm 24.9 N 4 6 1011.4 - - - - - - - - -
25/11:00pm 24.9 N 5 6 1011.4 - - - - - - - - -
25/10:30pm 24.9 N 1 4 1011.6 - - - - - - - - -
25/10:00pm 24.8 CALM 0 3 1011.6 - - - - - - - - -
25/09:30pm 24.9 CALM 0 1 1012.0 - - - - - - - - -
25/09:00pm 24.7 CALM 0 1 1012.0 - - - - - - - - -
25/08:30pm 24.7 CALM 0 0 1012.0 - - - - - - - - -
25/08:00pm 24.8 CALM 0 3 1011.7 - - - - - - - - -
25/07:30pm 25.1 E 2 4 1011.4 - - - - - - - - -
25/07:00pm 25.1 E 3 4 1010.8 - - - - - - - - -
25/06:30pm 25.2 SSW 4 5 1010.4 - - - - - - - - -
25/06:00pm 25.1 SSE 4 5 1009.9 - - - - - - - - -
25/05:30pm 25.3 S 5 6 1009.9 - - - - - - - - -
25/05:00pm 25.4 SW 5 8 1009.6 - - - - - - - - -
25/04:30pm 25.8 SSW 5 7 1009.5 - - - - - - - - -
25/04:00pm 25.5 SSW 6 8 1009.0 - - - - - - - - -
25/03:30pm 25.9 S 6 8 1009.1 - - - - - - - - -
25/03:00pm 25.5 S 6 9 1008.8 - - - - - - - - -
25/02:30pm 25.5 SSW 6 8 1009.1 - - - - - - - - -
25/02:00pm 25.4 S 7 9 1009.0 - - - - - - - - -
25/01:30pm 25.4 S 7 8 1009.4 - - - - - - - - -
25/01:00pm 25.3 S 8 9 1009.3 - - - - - - - - -
25/12:30pm 25.2 S 7 9 1009.9 - - - - - - - - -
25/12:00pm 25.2 SSW 7 9 1010.0 - - - - - - - - -
25/11:30am 25.1 S 8 10 1010.4 - - - - - - - - -
25/11:00am 25.0 S 7 9 1010.7 - - - - - - - - -
25/10:30am 24.9 S 7 9 1011.3 - - - - - - - - -
25/10:00am 25.0 S 6 7 1011.2 - - - - - - - - -
25/09:30am 25.2 SE 5 7 1011.5 - - - - - - - - -
25/09:00am 24.7 SSE 7 8 1011.5 - - - - - - - - -
25/08:30am 24.6 S 7 8 1011.3 - - - - - - - - -
25/08:00am 24.5 S 7 9 1011.0 - - - - - - - - -
25/07:30am 24.5 S 7 8 1010.9 - - - - - - - - -
25/07:00am 24.3 S 7 9 1010.6 - - - - - - - - -
25/06:30am 24.1 S 7 9 1010.4 - - - - - - - - -
25/06:00am 23.9 S 8 9 1010.1 - - - - - - - - -
25/05:30am 23.9 S 6 8 1010.0 - - - - - - - - -
25/05:00am 23.9 S 5 6 1009.7 - - - - - - - - -
25/04:30am 24.0 SSW 5 8 1009.8 - - - - - - - - -
25/04:00am 23.8 SSW 4 5 1009.6 - - - - - - - - -
25/03:30am 23.8 SSE 4 6 1009.6 - - - - - - - - -
25/03:00am 23.8 SE 4 5 1009.5 - - - - - - - - -
25/02:30am 23.7 SE 3 4 1009.6 - - - - - - - - -
25/02:00am 23.6 E 3 4 1009.6 - - - - - - - - -
25/01:30am 23.6 ENE 3 4 1009.8 - - - - - - - - -
25/01:00am 23.7 E 5 6 1010.0 - - - - - - - - -
25/12:30am 23.8 E 6 7 1010.3 - - - - - - - - -
25/12:00am 23.7 ESE 5 7 1010.4 - - - - - - - - -
 
Date/Time
EST
Temp

°C
Wind Pressure Rain
since 9am
mm
Weather Cloud Vis
km
Sea
Height
m
Swell
Dir
 
Speed
knots
Gust
knots
hPa Trend Height
m
Period
s
Dir
24/11:30pm 23.7 ESE 6 7 1010.6 - - - - - - - - -
24/11:00pm 23.7 E 7 9 1010.5 - - - - - - - - -
24/10:30pm 23.8 ESE 6 8 1010.6 - - - - - - - - -
24/10:00pm 23.7 ESE 6 8 1010.7 - - - - - - - - -
24/09:30pm 23.7 E 6 7 1010.8 - - - - - - - - -
24/09:00pm 23.8 SE 6 7 1010.7 - - - - - - - - -
24/08:30pm 23.7 SE 8 11 1010.7 - - - - - - - - -
24/08:00pm 23.8 SE 7 9 1010.4 - - - - - - - - -
24/07:30pm 23.9 SSE 6 8 1010.2 - - - - - - - - -
24/07:00pm 23.9 SSE 8 10 1009.9 - - - - - - - - -
24/06:30pm 23.8 SSE 9 10 1009.6 - - - - - - - - -
24/06:00pm 23.9 S 9 11 1009.3 - - - - - - - - -
24/05:30pm 24.0 S 9 12 1009.1 - - - - - - - - -
24/05:00pm 24.2 S 10 13 1008.7 - - - - - - - - -
24/04:30pm 24.3 S 9 11 1008.6 - - - - - - - - -
24/04:00pm 24.2 S 10 12 1008.3 - - - - - - - - -
24/03:30pm 24.5 S 10 12 1008.5 - - - - - - - - -
24/03:00pm 24.3 S 11 13 1008.4 - - - - - - - - -
24/02:30pm 24.3 S 11 14 1008.5 - - - - - - - - -
24/02:00pm 24.3 S 11 13 1008.4 - - - - - - - - -
24/01:30pm 24.3 S 10 13 1008.7 - - - - - - - - -
24/01:00pm 24.5 S 9 14 1008.9 - - - - - - - - -
24/12:30pm 24.3 S 8 10 1009.5 - - - - - - - - -
24/12:00pm 24.4 S 9 11 1009.8 - - - - - - - - -
24/11:30am 24.3 S 10 13 1010.3 - - - - - - - - -
24/11:00am 24.3 SE 7 9 1010.6 - - - - - - - - -
24/10:30am 24.7 ESE 5 7 1011.2 - - - - - - - - -
24/10:00am 24.7 E 4 6 1011.0 - - - - - - - - -
24/09:30am 24.6 E 4 6 1011.2 - - - - - - - - -
24/09:00am 24.1 E 4 5 1011.0 - - - - - - - - -
24/08:30am 24.7 E 4 6 1011.0 - - - - - - - - -
24/08:00am 24.3 E 4 5 1010.7 - - - - - - - - -
24/07:30am 23.5 ENE 2 5 1010.6 - - - - - - - - -
24/07:00am 23.3 E 4 5 1010.4 - - - - - - - - -
24/06:30am 23.0 ESE 3 6 1010.1 - - - - - - - - -
24/06:00am 22.5 CALM 0 3 1009.6 - - - - - - - - -
24/05:30am 22.8 SW 4 5 1009.5 - - - - - - - - -
24/05:00am 22.7 SE 1 5 1009.3 - - - - - - - - -
24/04:30am 23.0 SW 5 6 1009.6 - - - - - - - - -
24/04:00am 22.9 SW 5 7 1009.5 - - - - - - - - -
24/03:30am 23.0 SSW 7 10 1009.6 - - - - - - - - -
24/03:00am 22.9 S 6 7 1009.3 - - - - - - - - -
24/02:30am 22.9 S 4 6 1009.4 - - - - - - - - -
24/02:00am 22.9 SSW 7 8 1009.6 - - - - - - - - -
24/01:30am 23.0 SSW 6 8 1010.0 - - - - - - - - -
24/01:00am 23.0 S 5 6 1010.2 - - - - - - - - -
24/12:30am 23.0 SSE 4 7 1010.5 - - - - - - - - -
24/12:00am 23.0 SSE 5 6 1010.6 - - - - - - - - -
 
Date/Time
EST
Temp

°C
Wind Pressure Rain
since 9am
mm
Weather Cloud Vis
km
Sea
Height
m
Swell
Dir
 
Speed
knots
Gust
knots
hPa Trend Height
m
Period
s
Dir
23/11:30pm 22.7 ESE 5 7 1010.7 - - - - - - - - -
23/11:00pm 22.9 SE 6 7 1010.9 - - - - - - - - -
23/10:30pm 23.1 ESE 3 6 1011.2 - - - - - - - - -
23/10:00pm 22.8 SE 4 8 1011.0 - - - - - - - - -
23/09:30pm 23.1 SE 5 10 1011.3 - - - - - - - - -
23/09:00pm 23.1 SE 5 9 1011.1 - - - - - - - - -
23/08:30pm 23.2 SSE 7 10 1011.2 - - - - - - - - -
23/08:00pm 23.1 SE 7 9 1011.0 - - - - - - - - -
23/07:30pm 23.2 SSE 7 11 1010.9 - - - - - - - - -
23/07:00pm 23.1 SE 9 11 1010.4 - - - - - - - - -
23/06:30pm 23.1 SSE 10 13 1009.9 - - - - - - - - -
23/06:00pm 23.1 S 11 14 1009.5 - - - - - - - - -
23/05:30pm 23.2 SSE 12 15 1009.3 - - - - - - - - -
23/05:00pm 23.5 S 13 18 1008.7 - - - - - - - - -
23/04:30pm 23.3 S 14 18 1008.7 - - - - - - - - -
23/04:00pm 23.5 S 14 17 1008.3 - - - - - - - - -
23/03:30pm 23.6 S 14 16 1008.7 - - - - - - - - -
23/03:00pm 23.6 S 14 17 1008.5 - - - - - - - - -
23/02:30pm 23.8 SSE 15 17 1009.1 - - - - - - - - -
23/02:00pm 23.3 S 15 19 1009.3 - - - - - - - - -
23/01:30pm 23.6 S 15 18 1009.7 - - - - - - - - -
23/01:00pm 23.4 S 15 18 1010.1 - - - - - - - - -
23/12:30pm 23.5 S 14 16 1010.7 - - - - - - - - -
23/12:00pm 23.5 S 15 18 1011.0 - - - - - - - - -
23/11:30am 23.3 S 15 19 1011.4 - - - - - - - - -
23/11:00am 23.5 S 16 19 1011.7 - - - - - - - - -
23/10:30am 23.5 S 15 19 1011.9 - - - - - - - - -
23/10:00am 23.3 S 16 19 1012.2 - - - - - - - - -
23/09:30am 23.5 S 17 21 1012.4 - - - - - - - - -
23/09:00am 23.4 S 18 21 1012.3 - - - - - - - - -
23/08:30am 23.4 S 18 23 1012.3 - - - - - - - - -
23/08:00am 23.3 S 18 23 1012.0 - - - - - - - - -
23/07:30am 23.2 S 18 21 1011.8 - - - - - - - - -
23/07:00am 23.3 S 19 22 1011.2 - - - - - - - - -
23/06:30am 23.4 S 20 24 1010.8 - - - - - - - - -
23/06:00am 23.7 S 19 22 1010.5 - - - - - - - - -

Other Formats:

Comma delimited format used in spreadsheet applications
http://www.bom.gov.au/fwo/IDQ60701/IDQ60701.94379.axf

JavaScript Object Notation format (JSON) in row-major order
http://www.bom.gov.au/fwo/IDQ60701/IDQ60701.94379.json